Time;durP1;ratioP1;P1;durP2;ratioP2;P2;SDS_P1;SDS_P2;PMS_P1;PMS_P2;Temp;Humidity;BMP_temperature;BMP_pressure;BME280_temperature;BME280_humidity;BME280_pressure;Samples;Min_cycle;Max_cycle;Signal;HPM_P1;HPM_P2
2023/09/22 00:00:23;;;;;;;0.95;0.55;;;;;;;19.21;85.90;98584.59;6197033;23;20029;-89
2023/09/22 00:02:50;;;;;;;2.83;0.60;;;;;;;19.20;85.93;98591.84;6178239;23;20040;-87
2023/09/22 00:05:17;;;;;;;1.27;0.70;;;;;;;19.19;85.97;98595.59;6178671;23;20023;-89
2023/09/22 00:07:44;;;;;;;3.65;0.85;;;;;;;19.17;85.49;98597.66;6227256;23;20047;-89
2023/09/22 00:10:12;;;;;;;1.50;0.70;;;;;;;19.16;85.81;98596.03;6153373;23;20096;-88
2023/09/22 00:12:40;;;;;;;0.90;0.60;;;;;;;19.15;85.50;98605.13;6228100;23;20036;-86
2023/09/22 00:15:09;;;;;;;1.63;1.40;;;;;;;19.15;85.75;98613.22;6202687;23;20020;-89
2023/09/22 00:17:36;;;;;;;2.13;0.52;;;;;;;19.13;85.67;98607.22;6177807;23;20758;-88
2023/09/22 00:20:08;;;;;;;3.47;0.65;;;;;;;19.12;85.96;98613.66;6202650;23;20052;-89
2023/09/22 00:22:35;;;;;;;1.08;0.70;;;;;;;19.12;85.96;98615.53;6152717;23;20035;-89
2023/09/22 00:25:02;;;;;;;1.60;0.77;;;;;;;19.09;86.30;98616.78;6177815;23;20024;-90
2023/09/22 00:27:29;;;;;;;2.30;0.70;;;;;;;19.09;86.38;98612.22;6177877;23;20024;-89
2023/09/22 00:29:56;;;;;;;1.17;0.70;;;;;;;19.06;86.24;98606.47;6178280;23;20028;-88
2023/09/22 00:32:24;;;;;;;1.58;0.60;;;;;;;19.06;86.21;98607.28;6152584;23;20024;-89
2023/09/22 00:34:52;;;;;;;2.85;0.70;;;;;;;19.08;86.13;98605.22;6178005;23;20396;-88
2023/09/22 00:37:19;;;;;;;0.70;0.68;;;;;;;19.08;86.28;98607.91;6153197;23;20032;-88
2023/09/22 00:39:46;;;;;;;2.58;0.80;;;;;;;19.06;86.09;98604.59;6177702;23;20079;-88
2023/09/22 00:42:12;;;;;;;0.85;0.60;;;;;;;19.05;86.30;98600.25;6202916;23;20104;-89
2023/09/22 00:44:39;;;;;;;1.70;0.57;;;;;;;19.06;85.84;98599.22;6202918;23;20025;-88
2023/09/22 00:47:08;;;;;;;2.35;0.93;;;;;;;19.05;85.89;98596.75;6178463;23;21644;-86
2023/09/22 00:49:35;;;;;;;0.80;0.70;;;;;;;19.05;85.67;98583.28;6152645;23;20023;-89
2023/09/22 00:52:02;;;;;;;0.70;0.55;;;;;;;19.05;85.86;98591.38;6204514;23;20020;-88
2023/09/22 00:54:30;;;;;;;5.00;0.80;;;;;;;19.04;85.75;98587.84;6153416;23;20024;-88
2023/09/22 00:56:57;;;;;;;2.38;0.70;;;;;;;19.01;86.01;98576.72;6154853;23;20036;-89
2023/09/22 00:59:24;;;;;;;0.60;0.60;;;;;;;19.03;86.05;98593.44;6178491;23;20120;-89
2023/09/22 01:01:51;;;;;;;1.98;0.80;;;;;;;19.03;85.86;98585.38;6179405;23;20047;-88
2023/09/22 01:04:19;;;;;;;1.73;0.95;;;;;;;19.01;85.67;98588.31;6179054;23;20063;-88
2023/09/22 01:06:47;;;;;;;5.90;0.60;;;;;;;19.01;85.53;98598.25;6179398;23;20024;-88
2023/09/22 01:09:14;;;;;;;3.15;0.80;;;;;;;19.01;85.74;98617.09;6203600;23;20032;-88
2023/09/22 01:11:41;;;;;;;3.88;0.90;;;;;;;18.99;85.39;98619.16;6155570;23;20059;-88
2023/09/22 01:14:08;;;;;;;1.05;0.93;;;;;;;18.98;85.47;98618.34;6178910;23;20081;-89
2023/09/22 01:16:36;;;;;;;0.75;0.50;;;;;;;18.98;84.89;98617.50;6153846;23;20457;-89
2023/09/22 01:19:10;;;;;;;2.60;0.70;;;;;;;18.95;83.85;98615.25;6178752;23;20465;-89
2023/09/22 01:21:37;;;;;;;1.60;0.55;;;;;;;18.98;84.15;98598.66;6154608;23;20021;-88
2023/09/22 01:24:04;;;;;;;1.27;0.60;;;;;;;18.94;83.24;98611.75;6179249;23;20040;-89
2023/09/22 01:26:31;;;;;;;2.78;0.68;;;;;;;18.92;83.94;98629.97;6179001;23;20016;-88
2023/09/22 01:28:59;;;;;;;1.00;0.93;;;;;;;18.92;84.42;98643.41;6179430;23;20445;-88
2023/09/22 01:31:25;;;;;;;0.80;0.70;;;;;;;18.91;83.74;98641.78;6153965;23;20677;-88
2023/09/22 01:33:52;;;;;;;0.75;0.65;;;;;;;18.90;84.12;98644.66;6178992;23;20026;-88
2023/09/22 01:36:19;;;;;;;2.13;0.63;;;;;;;18.87;84.01;98649.44;6154264;23;20672;-88
2023/09/22 01:38:46;;;;;;;4.75;0.77;;;;;;;18.89;83.87;98638.47;6154639;23;20042;-88
2023/09/22 01:41:14;;;;;;;1.55;0.88;;;;;;;18.87;84.21;98619.03;6153965;23;20448;-88
2023/09/22 01:43:41;;;;;;;0.93;0.70;;;;;;;18.82;83.54;98619.69;6179109;23;20048;-87
2023/09/22 01:46:08;;;;;;;1.98;0.82;;;;;;;18.80;82.98;98629.88;6179611;23;20087;-88
2023/09/22 01:48:35;;;;;;;1.05;0.73;;;;;;;18.81;83.00;98618.06;6179148;23;20020;-88
2023/09/22 01:51:02;;;;;;;0.70;0.63;;;;;;;18.78;83.01;98626.56;6153644;23;20027;-88
2023/09/22 01:53:29;;;;;;;3.72;0.70;;;;;;;18.77;82.61;98622.22;6203091;23;20390;-88
2023/09/22 01:55:56;;;;;;;3.60;0.73;;;;;;;18.74;82.84;98622.63;6204568;23;20091;-90
2023/09/22 01:58:23;;;;;;;1.52;0.80;;;;;;;18.71;82.21;98628.44;6153213;23;20032;-88
2023/09/22 02:00:51;;;;;;;2.47;1.05;;;;;;;18.71;82.51;98635.69;6154570;23;20055;-88
2023/09/22 02:03:18;;;;;;;6.28;0.80;;;;;;;18.67;81.96;98646.03;6178439;23;20091;-88
2023/09/22 02:05:46;;;;;;;1.38;0.63;;;;;;;18.64;82.25;98646.47;6153520;23;20044;-88
2023/09/22 02:08:12;;;;;;;2.40;0.60;;;;;;;18.60;82.19;98629.97;6178643;23;20027;-88
2023/09/22 02:10:39;;;;;;;1.30;0.75;;;;;;;18.62;82.04;98611.75;6154512;23;20052;-88
2023/09/22 02:13:09;;;;;;;1.45;0.65;;;;;;;18.59;81.94;98614.03;6203587;23;20501;-88
2023/09/22 02:15:36;;;;;;;3.58;0.70;;;;;;;18.57;82.09;98600.84;6179023;23;20096;-88
2023/09/22 02:18:04;;;;;;;3.30;0.60;;;;;;;18.56;82.37;98593.78;6204054;23;20020;-88
2023/09/22 02:20:31;;;;;;;2.58;0.82;;;;;;;18.55;81.58;98584.09;6154506;23;20088;-88
2023/09/22 02:22:59;;;;;;;3.28;0.82;;;;;;;18.54;81.74;98573.53;6178823;23;20086;-88
2023/09/22 02:25:26;;;;;;;1.58;0.70;;;;;;;18.52;81.77;98583.69;6203362;23;20100;-89
2023/09/22 02:27:54;;;;;;;1.05;0.52;;;;;;;18.51;81.58;98587.44;6130102;23;20012;-88
2023/09/22 02:30:23;;;;;;;2.60;0.73;;;;;;;18.49;81.90;98597.56;6178665;23;20814;-88
2023/09/22 02:32:54;;;;;;;6.07;0.90;;;;;;;18.45;82.02;98607.94;6153536;23;20017;-89
2023/09/22 02:35:22;;;;;;;1.55;0.70;;;;;;;18.43;81.47;98607.34;6154011;23;20024;-88
2023/09/22 02:37:49;;;;;;;3.10;0.98;;;;;;;18.40;81.69;98597.84;6177573;23;20079;-88
2023/09/22 02:40:17;;;;;;;1.80;0.80;;;;;;;18.38;81.40;98610.66;6177895;23;20052;-88
2023/09/22 02:42:44;;;;;;;3.47;1.27;;;;;;;18.35;81.43;98615.66;6204130;23;20020;-88
2023/09/22 02:45:12;;;;;;;3.38;1.00;;;;;;;18.33;81.31;98615.88;6152837;23;20356;-89
2023/09/22 02:47:40;;;;;;;2.83;1.00;;;;;;;18.31;81.49;98615.25;6153513;23;20028;-88
2023/09/22 02:50:11;;;;;;;8.82;0.85;;;;;;;18.31;81.57;98626.00;6154907;23;20078;-88
2023/09/22 02:52:38;;;;;;;5.97;0.95;;;;;;;18.31;81.49;98630.56;6203785;23;20024;-88
2023/09/22 02:55:11;;;;;;;7.40;1.00;;;;;;;18.26;81.18;98644.63;6202268;23;20389;-88
2023/09/22 02:57:38;;;;;;;1.20;0.80;;;;;;;18.25;81.40;98653.75;6178628;23;20036;-88
2023/09/22 03:00:14;;;;;;;0.90;0.73;;;;;;;18.25;81.29;98664.50;6153993;23;20025;-88
2023/09/22 03:02:42;;;;;;;1.02;0.65;;;;;;;18.23;81.45;98663.88;6155263;23;20020;-88
2023/09/22 03:05:10;;;;;;;3.55;1.23;;;;;;;18.20;81.40;98675.06;6178126;23;20028;-88
2023/09/22 03:07:40;;;;;;;0.60;0.57;;;;;;;18.20;81.12;98685.81;6179035;23;20024;-88
2023/09/22 03:10:10;;;;;;;3.08;0.90;;;;;;;18.18;81.23;98679.81;6128738;23;20353;-88
2023/09/22 03:12:38;;;;;;;3.90;0.82;;;;;;;18.17;81.02;98670.13;6177233;23;20046;-88
2023/09/22 03:15:09;;;;;;;3.20;0.80;;;;;;;18.14;80.96;98671.38;6177510;23;20613;-89
2023/09/22 03:17:37;;;;;;;1.35;0.70;;;;;;;18.12;81.14;98665.38;6178032;23;20025;-88
2023/09/22 03:20:12;;;;;;;3.58;0.77;;;;;;;18.13;81.03;98663.50;6152698;23;20055;-87
2023/09/22 03:22:40;;;;;;;4.75;0.90;;;;;;;18.11;81.19;98652.13;6131498;23;20051;-88
2023/09/22 03:25:08;;;;;;;1.83;0.82;;;;;;;18.09;80.93;98644.31;6153225;23;20020;-88
2023/09/22 03:27:37;;;;;;;1.10;0.70;;;;;;;18.09;80.79;98627.34;6178167;23;20032;-87
2023/09/22 03:30:08;;;;;;;0.60;0.57;;;;;;;18.10;80.66;98626.31;6153160;23;20036;-88
2023/09/22 03:32:38;;;;;;;6.70;0.90;;;;;;;18.06;81.14;98612.47;6153187;23;20103;-88
2023/09/22 03:35:08;;;;;;;2.47;0.90;;;;;;;18.05;81.13;98613.53;6178488;23;20028;-88
2023/09/22 03:37:36;;;;;;;1.88;0.68;;;;;;;18.08;81.18;98617.66;6177731;23;20028;-88
2023/09/22 03:40:13;;;;;;;5.60;1.10;;;;;;;18.08;81.16;98631.09;6178743;23;20027;-88
2023/09/22 03:42:43;;;;;;;4.93;0.80;;;;;;;18.06;81.36;98641.22;6155543;23;20021;-88
2023/09/22 03:45:12;;;;;;;1.65;0.90;;;;;;;18.07;81.46;98667.06;6203036;23;20483;-88
2023/09/22 03:47:40;;;;;;;3.60;0.90;;;;;;;18.08;81.38;98669.50;6177110;23;20025;-88
2023/09/22 03:50:07;;;;;;;5.03;0.70;;;;;;;18.07;81.33;98664.38;6178632;23;20020;-88
2023/09/22 03:52:34;;;;;;;2.42;0.70;;;;;;;18.06;81.32;98658.16;6178109;23;20106;-88
2023/09/22 03:55:02;;;;;;;3.80;0.73;;;;;;;18.03;81.33;98658.56;6124169;23;20026;-88
2023/09/22 03:57:29;;;;;;;2.65;0.73;;;;;;;18.00;81.43;98649.09;6151670;23;20016;-87
2023/09/22 03:59:56;;;;;;;2.38;0.73;;;;;;;17.99;81.56;98642.06;6178806;23;20365;-88
2023/09/22 04:02:27;;;;;;;2.88;0.88;;;;;;;18.00;81.52;98661.69;6200774;23;20020;-88
2023/09/22 04:04:55;;;;;;;2.08;0.70;;;;;;;17.97;80.95;98678.25;6179205;23;20461;-88
2023/09/22 04:07:22;;;;;;;3.15;1.00;;;;;;;17.95;80.81;98683.00;6177876;23;20072;-87
2023/09/22 04:09:48;;;;;;;2.08;0.68;;;;;;;17.93;80.69;98685.06;6175174;23;20027;-89
2023/09/22 04:12:15;;;;;;;3.58;1.10;;;;;;;17.91;80.82;98674.56;6176710;23;20348;-88
2023/09/22 04:14:43;;;;;;;1.52;0.77;;;;;;;17.90;80.75;98670.19;6178350;23;20035;-87
2023/09/22 04:17:10;;;;;;;1.23;0.95;;;;;;;17.87;80.72;98659.88;6178681;23;20029;-87
2023/09/22 04:19:37;;;;;;;5.55;0.90;;;;;;;17.90;80.64;98664.00;6151946;23;20369;-88
2023/09/22 04:22:07;;;;;;;1.65;0.90;;;;;;;17.89;80.64;98673.94;6178179;23;20028;-88
2023/09/22 04:24:34;;;;;;;3.55;0.70;;;;;;;17.90;80.90;98682.81;6152960;23;21030;-88
2023/09/22 04:27:06;;;;;;;4.13;0.90;;;;;;;17.88;80.86;98676.81;6178739;23;20028;-88
2023/09/22 04:29:36;;;;;;;1.70;1.60;;;;;;;17.86;80.66;98674.34;6182442;23;20027;-93
2023/09/22 04:32:04;;;;;;;1.65;1.55;;;;;;;17.84;80.99;98660.31;6130928;23;20082;-88
2023/09/22 04:34:48;;;;;;;3.17;2.72;;;;;;;17.88;80.96;98661.53;6131790;23;20026;-94
2023/09/22 04:37:24;;;;;;;3.30;2.47;;;;;;;17.79;81.30;98644.81;6131360;23;20105;-82
2023/09/22 04:39:52;;;;;;;3.35;1.70;;;;;;;17.84;81.41;98649.56;6146106;23;20024;-83
2023/09/22 04:42:19;;;;;;;2.67;1.33;;;;;;;17.84;81.43;98636.16;6179299;23;20095;-82
2023/09/22 04:44:46;;;;;;;1.92;1.13;;;;;;;17.86;81.27;98636.75;6204430;23;20040;-82
2023/09/22 04:47:13;;;;;;;2.03;0.98;;;;;;;17.85;81.39;98647.69;6203084;23;20028;-83
2023/09/22 04:49:39;;;;;;;8.18;1.38;;;;;;;17.83;81.39;98657.81;6203617;23;20660;-83
2023/09/22 04:52:08;;;;;;;2.55;1.42;;;;;;;17.84;81.63;98671.06;6155352;23;20024;-82
2023/09/22 04:54:34;;;;;;;1.80;1.30;;;;;;;17.84;81.71;98675.59;6177888;23;20028;-82
2023/09/22 04:57:02;;;;;;;1.92;1.10;;;;;;;17.83;81.59;98679.31;6153915;23;20543;-83
2023/09/22 04:59:29;;;;;;;5.07;1.30;;;;;;;17.82;81.36;98691.09;6178766;23;20019;-83
2023/09/22 05:01:59;;;;;;;3.03;0.98;;;;;;;17.82;81.68;98705.34;6203789;23;20100;-82
2023/09/22 05:04:28;;;;;;;2.95;1.38;;;;;;;17.84;81.62;98694.41;6176115;23;20099;-82
2023/09/22 05:06:56;;;;;;;4.22;1.70;;;;;;;17.82;81.78;98681.19;6178237;23;20700;-83
2023/09/22 05:09:23;;;;;;;4.13;1.42;;;;;;;17.78;82.08;98674.53;6201294;23;20039;-85
2023/09/22 05:11:51;;;;;;;3.22;1.20;;;;;;;17.81;82.38;98684.06;6191256;23;20016;-84
2023/09/22 05:14:18;;;;;;;4.68;1.20;;;;;;;17.81;82.20;98684.06;6203283;23;20378;-83
2023/09/22 05:16:45;;;;;;;2.35;1.40;;;;;;;17.79;82.60;98693.16;6178541;23;20017;-84
2023/09/22 05:19:12;;;;;;;3.60;1.63;;;;;;;17.81;82.36;98698.34;6178702;23;20032;-84
2023/09/22 05:21:39;;;;;;;5.95;1.75;;;;;;;17.78;81.86;98707.59;6150459;23;20075;-84
2023/09/22 05:24:09;;;;;;;3.55;1.10;;;;;;;17.81;82.38;98721.66;6134843;23;20016;-86
2023/09/22 05:26:35;;;;;;;4.50;1.20;;;;;;;17.82;82.58;98699.97;6154082;23;20769;-84
2023/09/22 05:29:03;;;;;;;3.03;1.30;;;;;;;17.82;82.72;98696.47;6178739;23;20021;-84
2023/09/22 05:31:30;;;;;;;4.78;1.25;;;;;;;17.80;82.69;98675.19;6176843;23;20044;-85
2023/09/22 05:33:57;;;;;;;2.35;1.00;;;;;;;17.81;82.68;98684.06;6203252;23;20032;-85
2023/09/22 05:36:24;;;;;;;3.13;1.27;;;;;;;17.82;82.79;98685.72;6178904;23;20088;-85
2023/09/22 05:38:51;;;;;;;1.83;1.20;;;;;;;17.78;83.07;98687.97;6153057;23;20025;-84
2023/09/22 05:41:18;;;;;;;3.88;0.90;;;;;;;17.80;83.09;98693.97;6202006;23;20063;-83
2023/09/22 05:43:44;;;;;;;2.13;1.10;;;;;;;17.82;83.20;98693.78;6163443;23;20642;-84
2023/09/22 05:46:13;;;;;;;5.25;0.90;;;;;;;17.82;83.05;98697.28;6139763;23;20021;-85
2023/09/22 05:48:40;;;;;;;3.65;0.90;;;;;;;17.82;83.44;98701.84;6177761;23;20532;-84
2023/09/22 05:51:07;;;;;;;3.65;1.05;;;;;;;17.81;83.06;98711.75;6177466;23;20035;-84
2023/09/22 05:53:35;;;;;;;1.02;0.80;;;;;;;17.82;83.54;98712.59;6165080;23;20017;-83
2023/09/22 05:56:10;;;;;;;4.57;1.00;;;;;;;17.78;83.72;98706.75;6176526;23;20058;-85
2023/09/22 05:58:38;;;;;;;0.85;0.60;;;;;;;17.82;83.52;98717.94;6176693;23;20696;-84
2023/09/22 06:01:08;;;;;;;2.60;1.00;;;;;;;17.83;83.67;98735.69;6153165;23;20021;-84
2023/09/22 06:03:39;;;;;;;3.38;1.27;;;;;;;17.84;83.43;98742.75;6199550;23;20326;-84
2023/09/22 06:06:11;;;;;;;2.47;1.08;;;;;;;17.80;83.46;98745.00;6227044;23;20051;-86
2023/09/22 06:08:44;;;;;;;1.38;0.98;;;;;;;17.80;83.48;98755.75;6175779;23;20086;-84
2023/09/22 06:11:11;;;;;;;4.93;0.88;;;;;;;17.83;83.74;98763.38;6176000;23;20028;-85
2023/09/22 06:13:38;;;;;;;4.50;1.05;;;;;;;17.81;83.69;98759.25;6163553;23;20361;-83
2023/09/22 06:16:06;;;;;;;3.38;1.00;;;;;;;17.81;83.49;98760.09;6165148;23;20464;-84
2023/09/22 06:18:33;;;;;;;2.15;1.13;;;;;;;17.81;83.74;98759.25;6178279;23;20021;-83
2023/09/22 06:21:02;;;;;;;2.97;1.08;;;;;;;17.81;83.67;98765.47;6165869;23;20457;-83
2023/09/22 06:23:29;;;;;;;3.10;0.90;;;;;;;17.80;83.83;98766.47;6227152;23;20457;-83
2023/09/22 06:26:01;;;;;;;3.92;0.90;;;;;;;17.77;83.82;98772.25;6178170;23;20044;-85
2023/09/22 06:28:29;;;;;;;3.80;1.27;;;;;;;17.77;83.79;98773.06;6177779;23;20500;-83
2023/09/22 06:31:00;;;;;;;1.30;1.00;;;;;;;17.75;83.92;98777.81;6203411;23;20012;-84
2023/09/22 06:33:27;;;;;;;1.65;0.90;;;;;;;17.80;84.18;98798.69;6152539;23;20031;-85
2023/09/22 06:35:56;;;;;;;7.03;1.10;;;;;;;17.79;84.19;98797.03;6153636;23;20340;-82
2023/09/22 06:38:23;;;;;;;8.30;1.15;;;;;;;17.79;84.60;98811.31;6177266;23;20083;-85
2023/09/22 06:40:54;;;;;;;2.10;1.00;;;;;;;17.79;84.54;98811.31;6127594;23;20107;-85
2023/09/22 06:43:25;;;;;;;8.05;1.25;;;;;;;17.79;84.39;98815.81;6136950;23;20088;-84
2023/09/22 06:45:54;;;;;;;2.30;0.90;;;;;;;17.79;84.55;98814.00;6208562;23;20349;-85
2023/09/22 06:48:25;;;;;;;2.53;0.90;;;;;;;17.79;84.52;98803.25;6127936;23;20086;-85
2023/09/22 06:50:53;;;;;;;2.83;1.10;;;;;;;17.82;84.87;98801.19;6179127;23;20404;-84
2023/09/22 06:53:21;;;;;;;3.30;1.80;;;;;;;17.82;84.61;98796.66;6203396;23;20027;-85
2023/09/22 06:55:50;;;;;;;4.93;1.73;;;;;;;17.82;85.22;98793.97;6153806;23;20068;-85
2023/09/22 06:58:17;;;;;;;1.60;1.15;;;;;;;17.82;85.38;98801.19;6177211;23;20475;-86
2023/09/22 07:00:44;;;;;;;3.35;1.15;;;;;;;17.83;85.47;98808.19;6201599;23;20024;-86
2023/09/22 07:03:11;;;;;;;1.88;0.95;;;;;;;17.82;85.47;98809.25;6153994;23;20448;-86
2023/09/22 07:05:38;;;;;;;1.77;0.88;;;;;;;17.80;85.58;98804.06;6128822;23;20024;-86
2023/09/22 07:08:05;;;;;;;3.53;1.23;;;;;;;17.82;85.77;98795.81;6152384;23;20441;-86
2023/09/22 07:10:34;;;;;;;5.60;1.40;;;;;;;17.81;85.42;98803.06;6152745;23;20066;-86
2023/09/22 07:13:02;;;;;;;1.30;1.00;;;;;;;17.84;85.54;98812.56;6153777;23;20344;-85
2023/09/22 07:15:29;;;;;;;5.78;1.02;;;;;;;17.84;85.91;98805.31;6177025;23;20408;-85
2023/09/22 07:17:56;;;;;;;1.27;1.10;;;;;;;17.83;86.07;98798.28;6177430;23;20091;-85
2023/09/22 07:20:23;;;;;;;3.47;1.20;;;;;;;17.83;86.32;98795.59;6177133;23;20119;-84
2023/09/22 07:22:49;;;;;;;3.88;0.90;;;;;;;17.85;86.07;98806.97;6152356;23;20031;-84
2023/09/22 07:25:16;;;;;;;1.52;1.13;;;;;;;17.86;86.51;98818.53;6151840;23;20108;-84
2023/09/22 07:27:44;;;;;;;1.33;1.15;;;;;;;17.86;86.01;98819.38;6202396;23;20024;-84
2023/09/22 07:30:11;;;;;;;5.88;1.00;;;;;;;17.85;86.25;98814.19;6203600;23;20410;-84
2023/09/22 07:32:38;;;;;;;2.67;1.10;;;;;;;17.86;86.15;98823.91;6202492;23;20023;-84
2023/09/22 07:35:06;;;;;;;3.65;1.02;;;;;;;17.84;86.68;98817.94;6176849;23;20028;-84
2023/09/22 07:37:33;;;;;;;2.05;0.77;;;;;;;17.85;86.69;98823.06;6152899;23;20028;-84
2023/09/22 07:40:04;;;;;;;2.67;1.10;;;;;;;17.84;86.77;98813.38;6152640;23;20028;-84
2023/09/22 07:42:31;;;;;;;5.22;1.20;;;;;;;17.85;86.52;98798.09;6178552;23;20012;-84
2023/09/22 07:44:58;;;;;;;4.90;1.10;;;;;;;17.90;87.01;98790.22;6177496;23;20066;-84
2023/09/22 07:47:25;;;;;;;4.97;1.30;;;;;;;17.94;86.60;98805.72;6177579;23;20028;-84
2023/09/22 07:49:56;;;;;;;8.20;1.33;;;;;;;18.02;87.16;98804.69;6177882;23;20063;-84
2023/09/22 07:52:24;;;;;;;5.40;1.33;;;;;;;18.08;86.94;98814.56;6177217;23;20120;-84
2023/09/22 07:54:52;;;;;;;2.45;1.15;;;;;;;18.11;86.60;98826.75;6152927;23;20070;-85
2023/09/22 07:57:19;;;;;;;3.72;1.27;;;;;;;18.13;86.03;98822.84;6177045;23;20023;-84
2023/09/22 07:59:45;;;;;;;5.05;1.15;;;;;;;18.13;85.90;98805.91;6151951;23;20348;-83
2023/09/22 08:02:12;;;;;;;7.18;1.10;;;;;;;18.14;85.88;98820.97;6179306;23;20488;-84
2023/09/22 08:04:39;;;;;;;2.60;0.80;;;;;;;18.15;85.92;98828.84;6179509;23;20040;-88
2023/09/22 08:07:06;;;;;;;2.60;1.48;;;;;;;18.16;85.73;98829.66;6154464;23;20381;-85
2023/09/22 08:09:33;;;;;;;2.58;1.15;;;;;;;18.13;85.73;98830.91;6179739;23;20083;-85
2023/09/22 08:12:01;;;;;;;2.00;1.08;;;;;;;18.12;85.50;98837.31;6230014;23;20028;-85
2023/09/22 08:14:29;;;;;;;4.47;1.15;;;;;;;18.09;85.70;98831.50;6180107;23;20503;-84
2023/09/22 08:17:16;;;;;;;1.77;1.10;;;;;;;18.08;86.17;98838.75;6162511;23;20027;-83
2023/09/22 08:19:43;;;;;;;1.70;1.38;;;;;;;18.09;86.50;98850.31;6155029;23;20047;-84
2023/09/22 08:22:10;;;;;;;1.80;0.82;;;;;;;18.05;86.24;98844.56;6203619;23;20028;-84
2023/09/22 08:24:38;;;;;;;4.53;1.02;;;;;;;18.06;86.70;98856.94;6178971;23;20043;-85
2023/09/22 08:27:05;;;;;;;4.22;1.13;;;;;;;18.07;86.06;98858.59;6229756;23;20079;-83
2023/09/22 08:29:32;;;;;;;4.47;1.38;;;;;;;18.07;85.99;98855.91;6179941;23;20020;-84
2023/09/22 08:31:58;;;;;;;1.83;0.82;;;;;;;18.08;86.47;98854.06;6167482;23;20034;-84
2023/09/22 08:34:25;;;;;;;1.80;0.90;;;;;;;18.08;86.75;98864.81;6179701;23;20087;-84
2023/09/22 08:36:53;;;;;;;2.10;1.35;;;;;;;18.08;87.12;98849.50;6204189;23;20025;-83
2023/09/22 08:39:20;;;;;;;5.40;1.48;;;;;;;18.08;87.14;98860.25;6153773;23;20025;-84
2023/09/22 08:41:47;;;;;;;3.65;1.40;;;;;;;18.10;87.23;98858.19;6177417;23;20090;-83
2023/09/22 08:44:14;;;;;;;0.90;0.82;;;;;;;18.10;87.41;98852.81;6128694;23;20020;-85
2023/09/22 08:46:42;;;;;;;1.58;0.90;;;;;;;18.13;87.33;98854.25;6178460;23;20754;-84
2023/09/22 08:49:10;;;;;;;2.92;1.30;;;;;;;18.13;87.38;98856.94;6153539;23;20349;-84
2023/09/22 08:51:37;;;;;;;3.28;0.80;;;;;;;18.14;87.18;98862.13;6205320;23;20400;-85
2023/09/22 08:54:04;;;;;;;1.25;0.85;;;;;;;18.15;87.57;98865.63;6156015;23;20038;-85
2023/09/22 08:56:31;;;;;;;3.08;1.00;;;;;;;18.16;87.64;98856.50;6177593;23;20047;-86
2023/09/22 08:58:57;;;;;;;1.17;0.90;;;;;;;18.18;87.50;98859.81;6177861;23;25857;-85
2023/09/22 09:01:24;;;;;;;1.95;0.70;;;;;;;18.19;86.81;98858.78;6203594;23;20024;-86
2023/09/22 09:03:51;;;;;;;2.55;0.80;;;;;;;18.24;86.69;98856.28;6152842;23;20024;-85
2023/09/22 09:06:20;;;;;;;2.42;1.30;;;;;;;18.29;86.57;98855.66;6153590;23;20078;-85
2023/09/22 09:09:12;;;;;;;3.63;1.10;;;;;;;18.22;86.75;98853.84;6154136;23;20029;-85
2023/09/22 09:11:59;;;;;;;3.40;1.25;;;;;;;18.21;86.81;98854.03;6155752;23;20017;-84
2023/09/22 09:14:29;;;;;;;1.05;0.90;;;;;;;18.27;86.19;98861.28;6202964;23;20601;-85
2023/09/22 09:16:56;;;;;;;2.13;0.90;;;;;;;18.25;86.17;98870.56;6129976;23;20082;-84
2023/09/22 09:19:26;;;;;;;2.22;0.60;;;;;;;18.26;85.82;98883.78;6154229;23;20048;-83
2023/09/22 09:22:05;;;;;;;2.25;0.82;;;;;;;18.20;84.70;98874.72;6155229;23;20031;-84
2023/09/22 09:24:33;;;;;;;2.78;0.60;;;;;;;18.27;84.80;98872.03;6202954;23;20020;-84
2023/09/22 09:27:00;;;;;;;1.23;0.60;;;;;;;18.26;84.87;98864.16;6179561;23;20012;-84
2023/09/22 09:29:28;;;;;;;1.17;0.57;;;;;;;18.30;84.93;98866.22;6179145;23;20021;-84
2023/09/22 09:32:00;;;;;;;1.63;0.93;;;;;;;18.31;84.67;98865.19;6179815;23;20040;-84
2023/09/22 09:34:40;;;;;;;1.23;0.73;;;;;;;18.27;84.24;98863.09;6130795;23;20086;-85
2023/09/22 09:37:13;;;;;;;1.60;0.60;;;;;;;18.33;84.15;98865.78;6178608;23;20044;-85
2023/09/22 09:39:45;;;;;;;3.03;0.70;;;;;;;18.35;84.13;98870.97;6178188;23;20017;-84
2023/09/22 09:42:18;;;;;;;1.45;0.50;;;;;;;18.40;84.06;98879.22;6154598;23;20034;-84
2023/09/22 09:44:52;;;;;;;1.27;0.50;;;;;;;18.40;84.00;98872.00;6204193;23;20090;-84
2023/09/22 09:47:25;;;;;;;1.70;0.70;;;;;;;18.46;84.00;98869.50;6202547;23;20020;-83
2023/09/22 09:49:57;;;;;;;2.72;0.57;;;;;;;18.47;83.95;98873.81;6202736;23;20083;-85
2023/09/22 09:52:33;;;;;;;1.15;0.50;;;;;;;18.42;83.64;98867.25;6178088;23;20025;-85
2023/09/22 09:55:12;;;;;;;2.10;0.70;;;;;;;18.45;83.76;98882.13;6200565;23;20027;-83
2023/09/22 09:57:43;;;;;;;2.78;0.82;;;;;;;18.43;83.50;98885.00;6152797;23;20028;-84
2023/09/22 10:00:19;;;;;;;2.60;0.90;;;;;;;18.41;83.25;98879.00;6178724;23;20095;-84
2023/09/22 10:02:50;;;;;;;2.30;0.80;;;;;;;18.37;82.99;98885.84;6178594;23;20027;-85
2023/09/22 10:05:20;;;;;;;0.68;0.60;;;;;;;18.37;83.44;98887.72;6178250;23;20031;-84
2023/09/22 10:07:50;;;;;;;1.88;0.70;;;;;;;18.35;84.46;98887.91;6154802;23;20020;-84
2023/09/22 10:10:19;;;;;;;3.65;0.77;;;;;;;18.34;84.59;98888.97;6154214;23;20023;-84
2023/09/22 10:12:47;;;;;;;4.13;0.60;;;;;;;18.33;84.59;98884.63;6178676;23;20708;-84
2023/09/22 10:15:14;;;;;;;2.63;0.80;;;;;;;18.34;84.53;98886.28;6202867;23;20078;-85
2023/09/22 10:17:41;;;;;;;2.65;0.75;;;;;;;18.34;84.43;98893.50;6179826;23;20509;-86
2023/09/22 10:20:11;;;;;;;1.17;0.65;;;;;;;18.33;84.23;98887.28;6152765;23;20128;-86
2023/09/22 10:22:39;;;;;;;1.58;0.60;;;;;;;18.36;83.81;98891.44;6178242;23;20093;-85
2023/09/22 10:25:09;;;;;;;2.95;0.73;;;;;;;18.35;83.54;98887.91;6178241;23;20037;-85
2023/09/22 10:27:55;;;;;;;2.63;0.85;;;;;;;18.31;83.75;98888.53;6201703;23;20519;-84
2023/09/22 10:30:44;;;;;;;5.97;1.30;;;;;;;18.34;84.00;98886.28;6154831;23;20024;-85
2023/09/22 10:33:26;;;;;;;2.67;0.60;;;;;;;18.38;85.01;98867.88;6177942;23;20020;-84
2023/09/22 10:35:53;;;;;;;1.52;0.88;;;;;;;18.45;84.94;98868.69;6152467;23;20021;-84
2023/09/22 10:38:27;;;;;;;2.55;1.00;;;;;;;18.46;84.62;98874.88;6125160;23;20479;-85
2023/09/22 10:41:03;;;;;;;1.85;0.77;;;;;;;18.42;84.58;98872.63;6140488;23;20388;-85
2023/09/22 10:43:34;;;;;;;1.75;0.60;;;;;;;18.46;84.45;98881.06;6138773;23;20021;-85
2023/09/22 10:46:01;;;;;;;1.23;0.95;;;;;;;18.44;84.68;98873.22;6153835;23;20361;-83
2023/09/22 10:48:42;;;;;;;3.00;0.90;;;;;;;18.41;84.58;98873.63;6112631;23;20571;-84
2023/09/22 10:51:09;;;;;;;3.63;1.00;;;;;;;18.42;84.99;98867.25;6156973;23;20017;-82
2023/09/22 10:53:39;;;;;;;4.13;0.88;;;;;;;18.43;85.14;98876.94;6177916;23;20100;-84
2023/09/22 10:56:06;;;;;;;3.08;0.90;;;;;;;18.46;84.77;98872.19;6179437;23;20023;-83
2023/09/22 10:58:34;;;;;;;4.03;1.05;;;;;;;18.46;84.54;98880.25;6177358;23;20441;-84
2023/09/22 11:01:05;;;;;;;3.85;1.00;;;;;;;18.46;84.79;98874.88;6177311;23;20025;-83
2023/09/22 11:03:33;;;;;;;1.88;0.90;;;;;;;18.46;84.88;98880.25;6177427;23;20032;-83
2023/09/22 11:06:06;;;;;;;1.42;0.95;;;;;;;18.43;85.06;98882.31;6202636;23;20250;-83
2023/09/22 11:08:34;;;;;;;1.38;0.70;;;;;;;18.46;85.34;98885.63;6176438;23;20020;-82
2023/09/22 11:11:02;;;;;;;3.15;0.90;;;;;;;18.46;85.01;98883.75;6153089;23;20071;-83
2023/09/22 11:13:29;;;;;;;1.42;0.57;;;;;;;18.47;84.77;98879.19;6202064;23;20031;-82
2023/09/22 11:15:57;;;;;;;3.67;0.85;;;;;;;18.48;84.52;98880.88;6177030;23;20016;-83
2023/09/22 11:18:28;;;;;;;3.85;1.17;;;;;;;18.51;84.55;98875.88;6176358;23;20310;-82
2023/09/22 11:20:59;;;;;;;2.25;0.70;;;;;;;18.55;84.52;98870.94;6152814;23;20399;-82
2023/09/22 11:23:26;;;;;;;1.73;0.80;;;;;;;18.60;84.37;98873.81;6201423;23;20043;-82
2023/09/22 11:25:55;;;;;;;1.33;0.70;;;;;;;18.63;84.08;98873.38;6177209;23;20029;-81
2023/09/22 11:28:23;;;;;;;4.13;0.80;;;;;;;18.64;83.99;98872.34;6176744;23;20471;-81
2023/09/22 11:30:53;;;;;;;1.88;0.70;;;;;;;18.64;84.24;98861.59;6178432;23;20016;-82
2023/09/22 11:33:20;;;;;;;1.73;0.90;;;;;;;18.66;84.37;98863.03;6200898;23;20062;-81
2023/09/22 11:35:52;;;;;;;2.22;0.80;;;;;;;18.64;83.24;98857.03;6176960;23;20024;-82
2023/09/22 11:38:29;;;;;;;3.63;1.15;;;;;;;18.60;83.12;98858.50;6201543;23;20024;-83
2023/09/22 11:41:11;;;;;;;2.70;0.75;;;;;;;18.62;83.43;98851.06;6177096;23;22841;-83